sensor_id;sensor_type;location;lat;lon;timestamp;temperature;humidity
23403;DHT22;11874;48.228;11.684;2023-02-10T00:01:03;1.30;99.90
23403;DHT22;11874;48.228;11.684;2023-02-10T00:03:31;1.30;99.90
23403;DHT22;11874;48.228;11.684;2023-02-10T00:06:00;1.20;99.90
23403;DHT22;11874;48.228;11.684;2023-02-10T00:08:29;1.20;99.90
23403;DHT22;11874;48.228;11.684;2023-02-10T00:10:58;1.20;99.90
23403;DHT22;11874;48.228;11.684;2023-02-10T00:13:27;1.10;99.90
23403;DHT22;11874;48.228;11.684;2023-02-10T00:15:57;1.10;99.90
23403;DHT22;11874;48.228;11.684;2023-02-10T00:18:25;1.10;99.90
23403;DHT22;11874;48.228;11.684;2023-02-10T00:20:54;0.90;99.90
23403;DHT22;11874;48.228;11.684;2023-02-10T00:23:22;1.00;99.90
23403;DHT22;11874;48.228;11.684;2023-02-10T00:25:51;1.00;99.90
23403;DHT22;11874;48.228;11.684;2023-02-10T00:28:19;0.90;99.90
23403;DHT22;11874;48.228;11.684;2023-02-10T00:30:47;0.90;99.90
23403;DHT22;11874;48.228;11.684;2023-02-10T00:33:14;0.90;99.90
23403;DHT22;11874;48.228;11.684;2023-02-10T00:35:42;0.90;99.90
23403;DHT22;11874;48.228;11.684;2023-02-10T00:38:10;0.90;99.90
23403;DHT22;11874;48.228;11.684;2023-02-10T00:40:38;0.90;99.90
23403;DHT22;11874;48.228;11.684;2023-02-10T00:43:07;1.00;99.90
23403;DHT22;11874;48.228;11.684;2023-02-10T00:45:35;0.80;99.60
23403;DHT22;11874;48.228;11.684;2023-02-10T00:48:03;0.80;99.40
23403;DHT22;11874;48.228;11.684;2023-02-10T00:52:59;0.90;99.90
23403;DHT22;11874;48.228;11.684;2023-02-10T00:55:27;1.00;99.90
23403;DHT22;11874;48.228;11.684;2023-02-10T00:57:55;0.90;99.90
23403;DHT22;11874;48.228;11.684;2023-02-10T01:00:24;1.10;99.90
23403;DHT22;11874;48.228;11.684;2023-02-10T01:02:52;1.00;99.90
23403;DHT22;11874;48.228;11.684;2023-02-10T01:05:20;1.00;99.90
23403;DHT22;11874;48.228;11.684;2023-02-10T01:07:47;1.00;99.90
23403;DHT22;11874;48.228;11.684;2023-02-10T01:10:15;1.20;99.90
23403;DHT22;11874;48.228;11.684;2023-02-10T01:12:43;1.10;99.90
23403;DHT22;11874;48.228;11.684;2023-02-10T01:15:11;1.50;99.90
23403;DHT22;11874;48.228;11.684;2023-02-10T01:17:40;1.10;99.90
23403;DHT22;11874;48.228;11.684;2023-02-10T01:20:09;0.90;99.90
23403;DHT22;11874;48.228;11.684;2023-02-10T01:22:37;1.00;99.90
23403;DHT22;11874;48.228;11.684;2023-02-10T01:27:33;1.00;99.90
23403;DHT22;11874;48.228;11.684;2023-02-10T01:30:01;1.00;99.90
23403;DHT22;11874;48.228;11.684;2023-02-10T01:32:29;1.00;99.90
23403;DHT22;11874;48.228;11.684;2023-02-10T01:34:58;1.00;99.90
23403;DHT22;11874;48.228;11.684;2023-02-10T01:37:26;1.00;99.90
23403;DHT22;11874;48.228;11.684;2023-02-10T01:39:53;1.00;99.90
23403;DHT22;11874;48.228;11.684;2023-02-10T01:42:21;0.90;99.90
23403;DHT22;11874;48.228;11.684;2023-02-10T01:45:15;1.00;99.90
23403;DHT22;11874;48.228;11.684;2023-02-10T01:47:44;1.00;99.90
23403;DHT22;11874;48.228;11.684;2023-02-10T01:50:14;0.90;99.90
23403;DHT22;11874;48.228;11.684;2023-02-10T01:52:43;0.90;99.90
23403;DHT22;11874;48.228;11.684;2023-02-10T01:55:15;0.80;99.90
23403;DHT22;11874;48.228;11.684;2023-02-10T01:57:44;0.90;99.90
23403;DHT22;11874;48.228;11.684;2023-02-10T02:00:13;0.90;99.90
23403;DHT22;11874;48.228;11.684;2023-02-10T02:02:43;0.90;99.90
23403;DHT22;11874;48.228;11.684;2023-02-10T02:05:21;0.90;99.90
23403;DHT22;11874;48.228;11.684;2023-02-10T02:07:50;0.90;99.90
23403;DHT22;11874;48.228;11.684;2023-02-10T02:10:18;0.80;99.90
23403;DHT22;11874;48.228;11.684;2023-02-10T02:12:54;0.90;99.90
23403;DHT22;11874;48.228;11.684;2023-02-10T02:15:27;0.90;99.90
23403;DHT22;11874;48.228;11.684;2023-02-10T02:18:00;0.90;99.90
23403;DHT22;11874;48.228;11.684;2023-02-10T02:20:52;0.90;99.90
23403;DHT22;11874;48.228;11.684;2023-02-10T02:23:38;0.90;99.90
23403;DHT22;11874;48.228;11.684;2023-02-10T02:26:45;0.90;99.90
23403;DHT22;11874;48.228;11.684;2023-02-10T02:29:29;0.90;99.90
23403;DHT22;11874;48.228;11.684;2023-02-10T02:32:03;0.90;99.90
23403;DHT22;11874;48.228;11.684;2023-02-10T02:34:37;0.90;99.90
23403;DHT22;11874;48.228;11.684;2023-02-10T02:37:10;0.90;99.90
23403;DHT22;11874;48.228;11.684;2023-02-10T02:39:40;0.80;99.90
23403;DHT22;11874;48.228;11.684;2023-02-10T02:42:17;0.90;99.90
23403;DHT22;11874;48.228;11.684;2023-02-10T02:44:48;0.90;99.90
23403;DHT22;11874;48.228;11.684;2023-02-10T02:47:29;0.90;99.90
23403;DHT22;11874;48.228;11.684;2023-02-10T02:50:09;1.00;99.90
23403;DHT22;11874;48.228;11.684;2023-02-10T02:52:49;1.00;99.90
23403;DHT22;11874;48.228;11.684;2023-02-10T02:55:25;1.00;99.90
23403;DHT22;11874;48.228;11.684;2023-02-10T02:58:03;1.10;99.90
23403;DHT22;11874;48.228;11.684;2023-02-10T03:00:35;1.00;99.90
23403;DHT22;11874;48.228;11.684;2023-02-10T03:03:05;1.60;99.90
23403;DHT22;11874;48.228;11.684;2023-02-10T03:05:34;1.00;99.90
23403;DHT22;11874;48.228;11.684;2023-02-10T03:08:02;1.00;99.90
23403;DHT22;11874;48.228;11.684;2023-02-10T03:10:30;1.00;99.90
23403;DHT22;11874;48.228;11.684;2023-02-10T03:12:58;1.00;99.90
23403;DHT22;11874;48.228;11.684;2023-02-10T03:15:26;1.00;99.90
23403;DHT22;11874;48.228;11.684;2023-02-10T03:17:54;1.00;99.90
23403;DHT22;11874;48.228;11.684;2023-02-10T03:20:23;1.00;99.90
23403;DHT22;11874;48.228;11.684;2023-02-10T03:22:51;1.00;99.90
23403;DHT22;11874;48.228;11.684;2023-02-10T03:25:19;1.00;99.90
23403;DHT22;11874;48.228;11.684;2023-02-10T03:27:47;1.00;99.90
23403;DHT22;11874;48.228;11.684;2023-02-10T03:30:15;1.00;99.90
23403;DHT22;11874;48.228;11.684;2023-02-10T03:32:43;1.00;99.90
23403;DHT22;11874;48.228;11.684;2023-02-10T03:35:13;1.00;99.90
23403;DHT22;11874;48.228;11.684;2023-02-10T03:37:42;1.00;99.90
23403;DHT22;11874;48.228;11.684;2023-02-10T03:40:11;1.10;99.90
23403;DHT22;11874;48.228;11.684;2023-02-10T03:42:39;1.00;99.90
23403;DHT22;11874;48.228;11.684;2023-02-10T03:45:07;1.00;99.90
23403;DHT22;11874;48.228;11.684;2023-02-10T03:47:35;1.00;99.90
23403;DHT22;11874;48.228;11.684;2023-02-10T03:50:03;1.00;99.90
23403;DHT22;11874;48.228;11.684;2023-02-10T03:52:31;0.90;99.90
23403;DHT22;11874;48.228;11.684;2023-02-10T03:55:00;0.90;99.90
23403;DHT22;11874;48.228;11.684;2023-02-10T03:57:28;0.90;99.90
23403;DHT22;11874;48.228;11.684;2023-02-10T03:59:56;0.90;99.90
23403;DHT22;11874;48.228;11.684;2023-02-10T04:02:24;0.80;99.90
23403;DHT22;11874;48.228;11.684;2023-02-10T04:04:52;0.80;99.90
23403;DHT22;11874;48.228;11.684;2023-02-10T04:07:20;0.80;99.90
23403;DHT22;11874;48.228;11.684;2023-02-10T04:09:47;0.80;99.90
23403;DHT22;11874;48.228;11.684;2023-02-10T04:12:17;0.80;99.90
23403;DHT22;11874;48.228;11.684;2023-02-10T04:14:45;1.40;99.90
23403;DHT22;11874;48.228;11.684;2023-02-10T04:17:12;0.70;99.90
23403;DHT22;11874;48.228;11.684;2023-02-10T04:19:40;0.80;99.90
23403;DHT22;11874;48.228;11.684;2023-02-10T04:22:08;0.70;99.90
23403;DHT22;11874;48.228;11.684;2023-02-10T04:24:36;0.70;99.90
23403;DHT22;11874;48.228;11.684;2023-02-10T04:27:04;0.70;99.90
23403;DHT22;11874;48.228;11.684;2023-02-10T04:29:33;0.80;99.90
23403;DHT22;11874;48.228;11.684;2023-02-10T04:32:05;0.80;99.90
23403;DHT22;11874;48.228;11.684;2023-02-10T04:34:33;0.80;99.90
23403;DHT22;11874;48.228;11.684;2023-02-10T04:37:01;0.70;99.90
23403;DHT22;11874;48.228;11.684;2023-02-10T04:39:29;0.80;99.90
23403;DHT22;11874;48.228;11.684;2023-02-10T04:41:57;0.70;99.90
23403;DHT22;11874;48.228;11.684;2023-02-10T04:44:25;0.70;99.90
23403;DHT22;11874;48.228;11.684;2023-02-10T04:46:54;0.80;99.90
23403;DHT22;11874;48.228;11.684;2023-02-10T04:49:25;0.80;99.90
23403;DHT22;11874;48.228;11.684;2023-02-10T04:51:53;0.80;99.90
23403;DHT22;11874;48.228;11.684;2023-02-10T04:54:21;0.70;99.90
23403;DHT22;11874;48.228;11.684;2023-02-10T04:56:49;0.70;99.90
23403;DHT22;11874;48.228;11.684;2023-02-10T04:59:17;0.70;99.90
23403;DHT22;11874;48.228;11.684;2023-02-10T05:01:45;1.30;99.90
23403;DHT22;11874;48.228;11.684;2023-02-10T05:04:14;0.60;99.90
23403;DHT22;11874;48.228;11.684;2023-02-10T05:06:42;0.50;99.90
23403;DHT22;11874;48.228;11.684;2023-02-10T05:09:10;0.50;99.90
23403;DHT22;11874;48.228;11.684;2023-02-10T05:11:37;0.40;99.90
23403;DHT22;11874;48.228;11.684;2023-02-10T05:14:05;0.40;99.90
23403;DHT22;11874;48.228;11.684;2023-02-10T05:16:33;0.30;99.90
23403;DHT22;11874;48.228;11.684;2023-02-10T05:19:01;0.40;99.90
23403;DHT22;11874;48.228;11.684;2023-02-10T05:21:30;0.30;99.90
23403;DHT22;11874;48.228;11.684;2023-02-10T05:23:58;0.30;99.90
23403;DHT22;11874;48.228;11.684;2023-02-10T05:26:26;0.30;99.90
23403;DHT22;11874;48.228;11.684;2023-02-10T05:28:54;0.20;99.90
23403;DHT22;11874;48.228;11.684;2023-02-10T05:31:22;0.20;99.90
23403;DHT22;11874;48.228;11.684;2023-02-10T05:33:50;0.10;99.90
23403;DHT22;11874;48.228;11.684;2023-02-10T05:36:20;0.10;99.80
23403;DHT22;11874;48.228;11.684;2023-02-10T05:38:49;0.20;99.90
23403;DHT22;11874;48.228;11.684;2023-02-10T05:41:31;0.30;99.80
23403;DHT22;11874;48.228;11.684;2023-02-10T05:44:01;0.40;99.90
23403;DHT22;11874;48.228;11.684;2023-02-10T05:46:30;0.40;99.90
23403;DHT22;11874;48.228;11.684;2023-02-10T05:48:58;0.40;99.90
23403;DHT22;11874;48.228;11.684;2023-02-10T05:51:26;0.40;99.90
23403;DHT22;11874;48.228;11.684;2023-02-10T05:53:55;0.40;99.90
23403;DHT22;11874;48.228;11.684;2023-02-10T05:56:23;0.40;99.90
23403;DHT22;11874;48.228;11.684;2023-02-10T05:58:51;0.40;99.90
23403;DHT22;11874;48.228;11.684;2023-02-10T06:01:18;0.40;99.90
23403;DHT22;11874;48.228;11.684;2023-02-10T06:03:46;0.40;99.90
23403;DHT22;11874;48.228;11.684;2023-02-10T06:06:14;0.40;99.90
23403;DHT22;11874;48.228;11.684;2023-02-10T06:08:42;0.30;99.90
23403;DHT22;11874;48.228;11.684;2023-02-10T06:11:11;0.20;99.90
23403;DHT22;11874;48.228;11.684;2023-02-10T06:13:40;0.20;99.90
23403;DHT22;11874;48.228;11.684;2023-02-10T06:16:09;0.20;99.90
23403;DHT22;11874;48.228;11.684;2023-02-10T06:18:38;0.20;99.90
23403;DHT22;11874;48.228;11.684;2023-02-10T06:21:05;0.10;99.70
23403;DHT22;11874;48.228;11.684;2023-02-10T06:23:33;0.10;99.70
23403;DHT22;11874;48.228;11.684;2023-02-10T06:26:01;0.10;99.80
23403;DHT22;11874;48.228;11.684;2023-02-10T06:28:30;0.20;99.70
23403;DHT22;11874;48.228;11.684;2023-02-10T06:30:58;0.10;99.60
23403;DHT22;11874;48.228;11.684;2023-02-10T06:33:26;0.20;99.70
23403;DHT22;11874;48.228;11.684;2023-02-10T06:35:54;0.10;99.60
23403;DHT22;11874;48.228;11.684;2023-02-10T06:38:22;0.10;99.50
23403;DHT22;11874;48.228;11.684;2023-02-10T06:40:50;0.10;99.60
23403;DHT22;11874;48.228;11.684;2023-02-10T06:43:18;0.10;99.60
23403;DHT22;11874;48.228;11.684;2023-02-10T06:45:47;0.10;99.70
23403;DHT22;11874;48.228;11.684;2023-02-10T06:48:15;0.10;99.60
23403;DHT22;11874;48.228;11.684;2023-02-10T06:50:43;0.10;99.60
23403;DHT22;11874;48.228;11.684;2023-02-10T06:53:11;0.10;99.60
23403;DHT22;11874;48.228;11.684;2023-02-10T06:55:39;0.10;99.90
23403;DHT22;11874;48.228;11.684;2023-02-10T06:58:06;0.10;99.60
23403;DHT22;11874;48.228;11.684;2023-02-10T07:00:34;0.10;99.70
23403;DHT22;11874;48.228;11.684;2023-02-10T07:03:04;0.20;99.80
23403;DHT22;11874;48.228;11.684;2023-02-10T07:05:32;0.20;99.80
23403;DHT22;11874;48.228;11.684;2023-02-10T07:08:02;0.20;99.80
23403;DHT22;11874;48.228;11.684;2023-02-10T07:10:32;0.20;99.90
23403;DHT22;11874;48.228;11.684;2023-02-10T07:13:00;0.20;99.90
23403;DHT22;11874;48.228;11.684;2023-02-10T07:15:28;0.20;99.90
23403;DHT22;11874;48.228;11.684;2023-02-10T07:17:57;0.20;99.90
23403;DHT22;11874;48.228;11.684;2023-02-10T07:20:26;0.20;99.90
23403;DHT22;11874;48.228;11.684;2023-02-10T07:22:54;0.20;99.90
23403;DHT22;11874;48.228;11.684;2023-02-10T07:25:22;0.20;99.90
23403;DHT22;11874;48.228;11.684;2023-02-10T07:27:50;0.30;99.90
23403;DHT22;11874;48.228;11.684;2023-02-10T07:30:18;0.30;99.90
23403;DHT22;11874;48.228;11.684;2023-02-10T07:32:46;0.30;99.90
23403;DHT22;11874;48.228;11.684;2023-02-10T07:35:14;0.30;99.90
23403;DHT22;11874;48.228;11.684;2023-02-10T07:37:43;0.30;99.90
23403;DHT22;11874;48.228;11.684;2023-02-10T07:40:11;0.30;99.90
23403;DHT22;11874;48.228;11.684;2023-02-10T07:42:39;0.40;99.90
23403;DHT22;11874;48.228;11.684;2023-02-10T07:45:08;0.40;99.90
23403;DHT22;11874;48.228;11.684;2023-02-10T07:47:36;0.40;99.90
23403;DHT22;11874;48.228;11.684;2023-02-10T07:50:06;0.50;99.90
23403;DHT22;11874;48.228;11.684;2023-02-10T07:52:34;0.50;99.90
23403;DHT22;11874;48.228;11.684;2023-02-10T07:55:04;0.60;99.90
23403;DHT22;11874;48.228;11.684;2023-02-10T07:57:32;0.60;99.90
23403;DHT22;11874;48.228;11.684;2023-02-10T08:00:00;0.60;99.90
23403;DHT22;11874;48.228;11.684;2023-02-10T08:02:27;0.70;99.90
23403;DHT22;11874;48.228;11.684;2023-02-10T08:04:55;0.70;99.90
23403;DHT22;11874;48.228;11.684;2023-02-10T08:07:25;0.70;99.90
23403;DHT22;11874;48.228;11.684;2023-02-10T08:09:53;0.80;99.90
23403;DHT22;11874;48.228;11.684;2023-02-10T08:12:22;0.90;99.90
23403;DHT22;11874;48.228;11.684;2023-02-10T08:14:50;0.90;99.90
23403;DHT22;11874;48.228;11.684;2023-02-10T08:17:17;2.00;99.90
23403;DHT22;11874;48.228;11.684;2023-02-10T08:19:45;0.90;99.90
23403;DHT22;11874;48.228;11.684;2023-02-10T08:22:13;1.00;99.90
23403;DHT22;11874;48.228;11.684;2023-02-10T08:24:41;1.00;99.90
23403;DHT22;11874;48.228;11.684;2023-02-10T08:27:09;1.00;99.90
23403;DHT22;11874;48.228;11.684;2023-02-10T08:29:39;1.10;99.90
23403;DHT22;11874;48.228;11.684;2023-02-10T08:32:07;1.10;99.90
23403;DHT22;11874;48.228;11.684;2023-02-10T08:34:35;1.10;99.90
23403;DHT22;11874;48.228;11.684;2023-02-10T08:37:05;1.20;99.90
23403;DHT22;11874;48.228;11.684;2023-02-10T08:39:33;1.30;99.90
23403;DHT22;11874;48.228;11.684;2023-02-10T08:42:01;1.30;99.90
23403;DHT22;11874;48.228;11.684;2023-02-10T08:44:28;1.30;99.90
23403;DHT22;11874;48.228;11.684;2023-02-10T08:46:58;1.30;99.90
23403;DHT22;11874;48.228;11.684;2023-02-10T08:49:26;1.40;99.90
23403;DHT22;11874;48.228;11.684;2023-02-10T08:51:55;1.40;99.90
23403;DHT22;11874;48.228;11.684;2023-02-10T08:54:23;1.40;99.90
23403;DHT22;11874;48.228;11.684;2023-02-10T08:56:53;1.40;99.90
23403;DHT22;11874;48.228;11.684;2023-02-10T08:59:21;1.50;99.90
23403;DHT22;11874;48.228;11.684;2023-02-10T09:01:49;1.50;99.90
23403;DHT22;11874;48.228;11.684;2023-02-10T09:04:19;1.50;99.90
23403;DHT22;11874;48.228;11.684;2023-02-10T09:06:48;1.50;99.90
23403;DHT22;11874;48.228;11.684;2023-02-10T09:09:17;1.50;99.90
23403;DHT22;11874;48.228;11.684;2023-02-10T09:11:48;1.60;99.90
23403;DHT22;11874;48.228;11.684;2023-02-10T09:14:16;1.60;99.90
23403;DHT22;11874;48.228;11.684;2023-02-10T09:16:44;1.60;99.90
23403;DHT22;11874;48.228;11.684;2023-02-10T09:19:12;1.70;99.90
23403;DHT22;11874;48.228;11.684;2023-02-10T09:21:42;1.70;99.90
23403;DHT22;11874;48.228;11.684;2023-02-10T09:24:13;1.70;99.90
23403;DHT22;11874;48.228;11.684;2023-02-10T09:26:41;1.70;99.90
23403;DHT22;11874;48.228;11.684;2023-02-10T09:29:09;1.80;99.90
23403;DHT22;11874;48.228;11.684;2023-02-10T09:31:38;1.80;99.90
23403;DHT22;11874;48.228;11.684;2023-02-10T09:34:07;1.80;99.90
23403;DHT22;11874;48.228;11.684;2023-02-10T09:36:35;1.90;99.90
23403;DHT22;11874;48.228;11.684;2023-02-10T09:39:04;1.90;99.90
23403;DHT22;11874;48.228;11.684;2023-02-10T09:41:41;1.90;99.90
23403;DHT22;11874;48.228;11.684;2023-02-10T09:44:16;2.00;99.90
23403;DHT22;11874;48.228;11.684;2023-02-10T09:46:50;2.00;99.90
23403;DHT22;11874;48.228;11.684;2023-02-10T09:49:47;2.00;99.90
23403;DHT22;11874;48.228;11.684;2023-02-10T09:52:24;2.80;99.90
23403;DHT22;11874;48.228;11.684;2023-02-10T09:54:55;2.00;99.90
23403;DHT22;11874;48.228;11.684;2023-02-10T09:57:30;2.00;99.90
23403;DHT22;11874;48.228;11.684;2023-02-10T10:00:03;2.10;99.90
23403;DHT22;11874;48.228;11.684;2023-02-10T10:02:35;2.10;99.90
23403;DHT22;11874;48.228;11.684;2023-02-10T10:05:18;2.10;99.90
23403;DHT22;11874;48.228;11.684;2023-02-10T10:07:50;2.10;99.90
23403;DHT22;11874;48.228;11.684;2023-02-10T10:10:26;2.10;99.90
23403;DHT22;11874;48.228;11.684;2023-02-10T10:12:54;2.10;99.90
23403;DHT22;11874;48.228;11.684;2023-02-10T10:15:24;2.20;99.90
23403;DHT22;11874;48.228;11.684;2023-02-10T10:18:03;2.20;99.90
23403;DHT22;11874;48.228;11.684;2023-02-10T10:20:42;2.20;99.90
23403;DHT22;11874;48.228;11.684;2023-02-10T10:23:23;2.20;99.90
23403;DHT22;11874;48.228;11.684;2023-02-10T10:26:07;2.20;99.90
23403;DHT22;11874;48.228;11.684;2023-02-10T10:28:54;2.30;99.90
23403;DHT22;11874;48.228;11.684;2023-02-10T10:31:28;2.40;99.90
23403;DHT22;11874;48.228;11.684;2023-02-10T10:33:59;2.30;99.90
23403;DHT22;11874;48.228;11.684;2023-02-10T10:36:33;2.30;99.90
23403;DHT22;11874;48.228;11.684;2023-02-10T10:39:09;2.30;99.90
23403;DHT22;11874;48.228;11.684;2023-02-10T10:41:41;2.40;99.90
23403;DHT22;11874;48.228;11.684;2023-02-10T10:44:12;2.40;99.90
23403;DHT22;11874;48.228;11.684;2023-02-10T10:46:45;2.40;99.90
23403;DHT22;11874;48.228;11.684;2023-02-10T10:49:15;2.60;99.90
23403;DHT22;11874;48.228;11.684;2023-02-10T10:51:43;2.50;99.90
23403;DHT22;11874;48.228;11.684;2023-02-10T10:54:16;2.50;99.90
23403;DHT22;11874;48.228;11.684;2023-02-10T10:56:49;2.50;99.90
23403;DHT22;11874;48.228;11.684;2023-02-10T10:59:21;2.50;99.90
23403;DHT22;11874;48.228;11.684;2023-02-10T11:01:53;2.60;99.90
23403;DHT22;11874;48.228;11.684;2023-02-10T11:04:23;2.60;99.90
23403;DHT22;11874;48.228;11.684;2023-02-10T11:06:53;2.60;99.90
23403;DHT22;11874;48.228;11.684;2023-02-10T11:09:26;2.70;99.90
23403;DHT22;11874;48.228;11.684;2023-02-10T11:12:02;2.70;99.90
23403;DHT22;11874;48.228;11.684;2023-02-10T11:14:38;2.70;99.90
23403;DHT22;11874;48.228;11.684;2023-02-10T11:17:19;2.70;99.90
23403;DHT22;11874;48.228;11.684;2023-02-10T11:19:56;2.80;99.90
23403;DHT22;11874;48.228;11.684;2023-02-10T11:22:25;2.80;99.90
23403;DHT22;11874;48.228;11.684;2023-02-10T11:24:54;2.80;99.90
23403;DHT22;11874;48.228;11.684;2023-02-10T11:27:24;2.80;99.90
23403;DHT22;11874;48.228;11.684;2023-02-10T11:29:57;3.20;99.90
23403;DHT22;11874;48.228;11.684;2023-02-10T11:32:27;2.90;99.90
23403;DHT22;11874;48.228;11.684;2023-02-10T11:34:57;2.90;99.90
23403;DHT22;11874;48.228;11.684;2023-02-10T11:37:27;2.90;99.90
23403;DHT22;11874;48.228;11.684;2023-02-10T11:39:57;3.00;99.90
23403;DHT22;11874;48.228;11.684;2023-02-10T11:42:29;3.00;99.90
23403;DHT22;11874;48.228;11.684;2023-02-10T11:45:10;3.00;99.90
23403;DHT22;11874;48.228;11.684;2023-02-10T11:47:45;3.00;99.90
23403;DHT22;11874;48.228;11.684;2023-02-10T11:50:29;3.00;99.90
23403;DHT22;11874;48.228;11.684;2023-02-10T11:53:14;3.10;99.90
23403;DHT22;11874;48.228;11.684;2023-02-10T11:55:56;3.10;99.90
23403;DHT22;11874;48.228;11.684;2023-02-10T11:58:43;3.10;99.90
23403;DHT22;11874;48.228;11.684;2023-02-10T12:01:45;3.20;99.90
23403;DHT22;11874;48.228;11.684;2023-02-10T12:04:49;3.20;99.90
23403;DHT22;11874;48.228;11.684;2023-02-10T12:07:30;3.20;99.90
23403;DHT22;11874;48.228;11.684;2023-02-10T12:10:10;3.30;99.90
23403;DHT22;11874;48.228;11.684;2023-02-10T12:12:44;3.30;99.90
23403;DHT22;11874;48.228;11.684;2023-02-10T12:15:17;4.30;99.90
23403;DHT22;11874;48.228;11.684;2023-02-10T12:17:55;3.40;99.90
23403;DHT22;11874;48.228;11.684;2023-02-10T12:20:36;3.50;99.90
23403;DHT22;11874;48.228;11.684;2023-02-10T12:23:25;3.60;99.90
23403;DHT22;11874;48.228;11.684;2023-02-10T12:26:02;3.50;99.90
23403;DHT22;11874;48.228;11.684;2023-02-10T12:28:41;3.60;99.90
23403;DHT22;11874;48.228;11.684;2023-02-10T12:31:23;3.60;99.90
23403;DHT22;11874;48.228;11.684;2023-02-10T12:34:11;4.10;99.90
23403;DHT22;11874;48.228;11.684;2023-02-10T12:36:47;3.80;99.90
23403;DHT22;11874;48.228;11.684;2023-02-10T12:39:22;3.90;99.70
23403;DHT22;11874;48.228;11.684;2023-02-10T12:41:58;4.10;99.80
23403;DHT22;11874;48.228;11.684;2023-02-10T12:44:43;5.60;99.90
23403;DHT22;11874;48.228;11.684;2023-02-10T12:47:26;4.90;99.90
23403;DHT22;11874;48.228;11.684;2023-02-10T12:52:33;6.50;99.50
23403;DHT22;11874;48.228;11.684;2023-02-10T12:57:40;7.90;98.10
23403;DHT22;11874;48.228;11.684;2023-02-10T13:00:14;8.30;97.80
23403;DHT22;11874;48.228;11.684;2023-02-10T13:02:51;8.70;97.30
23403;DHT22;11874;48.228;11.684;2023-02-10T13:05:25;9.30;97.00
23403;DHT22;11874;48.228;11.684;2023-02-10T13:07:54;9.60;96.40
23403;DHT22;11874;48.228;11.684;2023-02-10T13:10:32;9.70;95.80
23403;DHT22;11874;48.228;11.684;2023-02-10T13:13:06;9.80;95.30
23403;DHT22;11874;48.228;11.684;2023-02-10T13:15:38;9.80;94.60
23403;DHT22;11874;48.228;11.684;2023-02-10T13:18:17;9.90;94.50
23403;DHT22;11874;48.228;11.684;2023-02-10T13:20:51;10.00;94.20
23403;DHT22;11874;48.228;11.684;2023-02-10T13:23:24;10.10;94.10
23403;DHT22;11874;48.228;11.684;2023-02-10T13:26:15;10.40;94.20
23403;DHT22;11874;48.228;11.684;2023-02-10T13:28:54;10.60;93.80
23403;DHT22;11874;48.228;11.684;2023-02-10T13:31:41;10.60;93.40
23403;DHT22;11874;48.228;11.684;2023-02-10T13:34:18;10.80;93.20
23403;DHT22;11874;48.228;11.684;2023-02-10T13:36:54;10.80;92.60
23403;DHT22;11874;48.228;11.684;2023-02-10T13:39:25;10.70;92.00
23403;DHT22;11874;48.228;11.684;2023-02-10T13:42:07;10.70;91.40
23403;DHT22;11874;48.228;11.684;2023-02-10T13:44:37;10.50;90.80
23403;DHT22;11874;48.228;11.684;2023-02-10T13:47:19;10.20;90.40
23403;DHT22;11874;48.228;11.684;2023-02-10T13:49:54;9.80;90.20
23403;DHT22;11874;48.228;11.684;2023-02-10T13:52:25;9.70;90.60
23403;DHT22;11874;48.228;11.684;2023-02-10T13:54:57;9.80;90.80
23403;DHT22;11874;48.228;11.684;2023-02-10T13:57:31;10.00;90.80
23403;DHT22;11874;48.228;11.684;2023-02-10T14:00:16;10.20;90.50
23403;DHT22;11874;48.228;11.684;2023-02-10T14:02:57;10.50;90.20
23403;DHT22;11874;48.228;11.684;2023-02-10T14:05:29;10.80;90.00
23403;DHT22;11874;48.228;11.684;2023-02-10T14:07:58;10.80;89.20
23403;DHT22;11874;48.228;11.684;2023-02-10T14:10:31;10.90;88.60
23403;DHT22;11874;48.228;11.684;2023-02-10T14:13:03;11.00;88.20
23403;DHT22;11874;48.228;11.684;2023-02-10T14:15:33;11.20;87.80
23403;DHT22;11874;48.228;11.684;2023-02-10T14:18:04;11.50;86.60
23403;DHT22;11874;48.228;11.684;2023-02-10T14:20:37;11.40;86.20
23403;DHT22;11874;48.228;11.684;2023-02-10T14:23:06;11.60;85.70
23403;DHT22;11874;48.228;11.684;2023-02-10T14:25:38;11.90;85.60
23403;DHT22;11874;48.228;11.684;2023-02-10T14:28:20;11.70;85.40
23403;DHT22;11874;48.228;11.684;2023-02-10T14:30:53;11.70;85.10
23403;DHT22;11874;48.228;11.684;2023-02-10T14:33:26;11.70;85.30
23403;DHT22;11874;48.228;11.684;2023-02-10T14:35:57;11.70;85.30
23403;DHT22;11874;48.228;11.684;2023-02-10T14:38:27;11.60;85.50
23403;DHT22;11874;48.228;11.684;2023-02-10T14:40:59;11.60;85.30
23403;DHT22;11874;48.228;11.684;2023-02-10T14:43:41;11.70;85.30
23403;DHT22;11874;48.228;11.684;2023-02-10T14:46:19;11.60;84.50
23403;DHT22;11874;48.228;11.684;2023-02-10T14:48:47;11.50;84.40
23403;DHT22;11874;48.228;11.684;2023-02-10T14:51:21;11.40;84.60
23403;DHT22;11874;48.228;11.684;2023-02-10T14:53:51;11.20;84.50
23403;DHT22;11874;48.228;11.684;2023-02-10T14:56:22;11.10;84.80
23403;DHT22;11874;48.228;11.684;2023-02-10T14:58:51;10.90;84.80
23403;DHT22;11874;48.228;11.684;2023-02-10T15:01:23;10.70;85.60
23403;DHT22;11874;48.228;11.684;2023-02-10T15:03:52;10.70;85.30
23403;DHT22;11874;48.228;11.684;2023-02-10T15:06:25;10.30;85.40
23403;DHT22;11874;48.228;11.684;2023-02-10T15:08:55;10.10;85.80
23403;DHT22;11874;48.228;11.684;2023-02-10T15:11:25;9.90;86.10
23403;DHT22;11874;48.228;11.684;2023-02-10T15:14:18;9.80;86.50
23403;DHT22;11874;48.228;11.684;2023-02-10T15:16:47;9.60;86.60
23403;DHT22;11874;48.228;11.684;2023-02-10T15:21:46;9.30;86.30
23403;DHT22;11874;48.228;11.684;2023-02-10T15:24:21;9.10;87.20
23403;DHT22;11874;48.228;11.684;2023-02-10T15:26:49;9.00;87.50
23403;DHT22;11874;48.228;11.684;2023-02-10T15:29:17;8.90;88.00
23403;DHT22;11874;48.228;11.684;2023-02-10T15:31:53;8.80;88.30
23403;DHT22;11874;48.228;11.684;2023-02-10T15:34:27;9.00;88.70
23403;DHT22;11874;48.228;11.684;2023-02-10T15:36:58;8.60;88.70
23403;DHT22;11874;48.228;11.684;2023-02-10T15:39:29;8.30;88.80
23403;DHT22;11874;48.228;11.684;2023-02-10T15:42:01;8.20;89.10
23403;DHT22;11874;48.228;11.684;2023-02-10T15:44:33;8.00;89.50
23403;DHT22;11874;48.228;11.684;2023-02-10T15:47:20;7.80;90.00
23403;DHT22;11874;48.228;11.684;2023-02-10T15:49:52;7.70;90.30
23403;DHT22;11874;48.228;11.684;2023-02-10T15:52:23;7.50;91.10
23403;DHT22;11874;48.228;11.684;2023-02-10T15:54:54;6.90;90.80
23403;DHT22;11874;48.228;11.684;2023-02-10T15:57:26;7.00;90.70
23403;DHT22;11874;48.228;11.684;2023-02-10T15:59:54;7.10;91.30
23403;DHT22;11874;48.228;11.684;2023-02-10T16:04:55;6.70;91.00
23403;DHT22;11874;48.228;11.684;2023-02-10T20:26:02;2.70;97.90
23403;DHT22;11874;48.228;11.684;2023-02-10T20:28:31;2.60;98.10
23403;DHT22;11874;48.228;11.684;2023-02-10T20:31:00;2.60;98.30